Home   Weather   Chamonix Mont-Blanc   Past weeks
Flag for France

Past Weather in Chamonix Mont-Blanc, Haute-Savoie, France — August 2019

Currently: 36 °F. Fog. (Weather station: Chambery / Aix-Les-Bains, France). See more current weather

August 2019 Weather in Chamonix Mont-Blanc — Graph

°F

High & Low Weather Summary for August 2019

 TemperatureHumidityPressure
High95 °F (Aug 9, 5:00 pm)100% (Aug 1, 6:30 am)30.30 "Hg (Aug 1, 6:30 am)
Low50 °F (Aug 14, 6:00 am)24% (Aug 4, 5:00 pm)29.80 "Hg (Aug 9, 4:30 pm)
Average70 °F71%30.05 "Hg
* Reported Aug 1 12:00 am — Aug 31 11:30 pm, Chamonix Mont-Blanc. Weather by CustomWeather, © 2022

Note: Actual official high and low records may vary slightly from our data, if they occured in-between our weather recording intervals... More about our weather records

Chamonix Mont-Blanc Weather History for August 1, 2019

Scroll right to see more
 ConditionsComfort  
Time TempWeatherWind HumidityBarometerVisibility
12:00 am
Thu, Aug 1
61 °FClear.2 mph83%30.09 "Hg10 mi
12:30 am61 °FClear.No wind83%30.09 "Hg10 mi
1:00 am59 °FClear.3 mph88%30.09 "Hg10 mi
1:30 am61 °FClear.2 mph83%30.09 "Hg10 mi
2:00 am59 °FClear.No wind88%30.07 "Hg10 mi
2:30 am55 °FClear.5 mph94%30.09 "Hg10 mi
3:00 am57 °FClear.2 mph88%30.09 "Hg10 mi
3:30 am57 °FClear.1 mph88%30.09 "Hg10 mi
4:00 am55 °FClear.1 mph94%30.09 "Hg10 mi
4:30 am54 °FClear.2 mph94%30.07 "Hg10 mi
5:00 am55 °FClear.2 mph94%30.07 "Hg10 mi
5:30 am55 °FClear.2 mph94%30.07 "Hg10 mi
6:00 am52 °FClear.3 mph94%30.09 "Hg10 mi
6:30 am54 °FSunny.1 mph100%30.09 "Hg10 mi
7:00 am54 °FSunny.1 mph100%30.07 "Hg10 mi
7:30 am55 °FSunny.2 mph100%30.09 "Hg10 mi
8:00 am57 °FSunny.2 mph94%30.09 "Hg10 mi
8:30 am61 °FSunny.2 mph88%30.09 "Hg10 mi
9:00 am64 °FSunny.2 mph78%30.07 "Hg10 mi
9:30 am68 °FSunny.2 mph64%30.07 "Hg10 mi
10:00 am70 °FSunny.2 mph64%30.07 "Hg10 mi
10:30 am70 °FPassing clouds.5 mph60%30.07 "HgN/A
11:00 am72 °FPassing clouds.3 mph57%30.07 "HgN/A
11:30 am72 °FPassing clouds.6 mph61%30.04 "HgN/A
12:00 pm73 °FPassing clouds.5 mph57%30.01 "HgN/A
12:30 pm75 °FPassing clouds.7 mph57%30.01 "HgN/A
1:00 pm77 °FPassing clouds.6 mph54%30.01 "HgN/A
1:30 pm79 °FPassing clouds.6 mph51%30.01 "HgN/A
2:00 pm79 °FPassing clouds.6 mph51%30.01 "HgN/A
2:30 pm81 °FPassing clouds.5 mph48%29.98 "HgN/A
3:00 pm81 °FPassing clouds.3 mph48%29.98 "HgN/A
3:30 pm81 °FPassing clouds.3 mph48%29.98 "HgN/A
4:00 pm82 °FPassing clouds.6 mph45%29.95 "HgN/A
4:30 pm84 °FPassing clouds.6 mph43%29.95 "HgN/A
5:00 pm84 °FPassing clouds.6 mph45%29.95 "HgN/A
5:30 pm82 °FSunny.9 mph55%29.92 "Hg10 mi
6:00 pm81 °FSunny.6 mph54%29.92 "Hg10 mi
6:30 pm81 °FPassing clouds.7 mph54%29.92 "HgN/A
7:00 pm82 °FPassing clouds.3 mph45%29.95 "HgN/A
7:30 pm79 °FPassing clouds.3 mph58%29.95 "HgN/A
8:00 pm77 °FPassing clouds.5 mph57%29.95 "HgN/A
9:00 pm75 °FSunny.No wind61%29.95 "Hg10 mi
9:30 pm72 °FClear.2 mph69%29.95 "Hg10 mi
10:00 pm72 °FClear.2 mph73%29.95 "Hg10 mi
10:30 pm72 °FClear.1 mph69%29.98 "Hg10 mi
11:00 pm70 °FPassing clouds.5 mph78%29.98 "HgN/A
11:30 pm70 °FClear.5 mph73%29.98 "Hg10 mi
Weather by CustomWeather, © 2022

See weather overview